Time;durP1;ratioP1;P1;durP2;ratioP2;P2;SDS_P1;SDS_P2;PMS_P1;PMS_P2;Temp;Humidity;BMP_temperature;BMP_pressure;BME280_temperature;BME280_humidity;BME280_pressure;Samples;Min_cycle;Max_cycle;Signal;HPM_P1;HPM_P2
2023/03/13 00:00:00;;;;;;;1.4;1.4;;;;;;;9.5;100.0;100060;;;;
2023/03/13 00:01:01;;;;;;;1.4;1.4;;;;;;;9.5;100.0;100060;;;;
2023/03/13 00:02:00;;;;;;;1.4;1.4;;;;;;;9.5;100.0;100050;;;;
2023/03/13 00:03:00;;;;;;;1.4;1.4;;;;;;;9.5;100.0;100050;;;;
2023/03/13 00:04:00;;;;;;;1.4;1.4;;;;;;;9.5;100.0;100050;;;;
2023/03/13 00:05:00;;;;;;;1.4;1.4;;;;;;;9.5;100.0;100050;;;;
2023/03/13 00:06:00;;;;;;;1.4;1.4;;;;;;;9.4;100.0;100050;;;;
2023/03/13 00:07:00;;;;;;;1.4;1.4;;;;;;;9.4;100.0;100050;;;;
2023/03/13 00:08:00;;;;;;;1.4;1.4;;;;;;;9.4;100.0;100040;;;;
2023/03/13 00:09:01;;;;;;;1.4;1.4;;;;;;;9.4;100.0;100040;;;;
2023/03/13 00:10:00;;;;;;;1.4;1.4;;;;;;;9.4;100.0;100040;;;;
2023/03/13 00:11:02;;;;;;;1.4;1.4;;;;;;;9.4;100.0;100040;;;;
2023/03/13 00:12:00;;;;;;;1.4;1.4;;;;;;;9.4;100.0;100030;;;;
2023/03/13 00:13:00;;;;;;;1.4;1.4;;;;;;;9.4;100.0;100030;;;;
2023/03/13 00:14:01;;;;;;;1.4;1.4;;;;;;;9.4;100.0;100030;;;;
2023/03/13 00:15:00;;;;;;;1.4;1.4;;;;;;;9.4;100.0;100030;;;;
2023/03/13 00:16:01;;;;;;;1.4;1.4;;;;;;;9.4;100.0;100020;;;;
2023/03/13 00:17:01;;;;;;;1.4;1.4;;;;;;;9.4;100.0;100020;;;;
2023/03/13 00:18:00;;;;;;;0.8;0.8;;;;;;;9.4;100.0;100020;;;;
2023/03/13 00:19:00;;;;;;;0.8;0.8;;;;;;;9.4;100.0;100020;;;;
2023/03/13 00:20:00;;;;;;;0.8;0.8;;;;;;;9.4;100.0;100010;;;;
2023/03/13 00:21:01;;;;;;;0.8;0.8;;;;;;;9.4;100.0;100010;;;;
2023/03/13 00:22:00;;;;;;;0.8;0.8;;;;;;;9.4;100.0;100010;;;;
2023/03/13 00:23:00;;;;;;;0.8;0.8;;;;;;;9.4;100.0;100010;;;;
2023/03/13 00:24:00;;;;;;;0.8;0.8;;;;;;;9.4;100.0;100010;;;;
2023/03/13 00:25:00;;;;;;;0.8;0.8;;;;;;;9.4;100.0;100010;;;;
2023/03/13 00:26:02;;;;;;;0.8;0.8;;;;;;;9.4;100.0;100010;;;;
2023/03/13 00:27:02;;;;;;;0.8;0.8;;;;;;;9.4;100.0;100010;;;;
2023/03/13 00:28:00;;;;;;;0.8;0.8;;;;;;;9.4;100.0;100010;;;;
2023/03/13 00:29:00;;;;;;;0.8;0.8;;;;;;;9.4;100.0;100010;;;;
2023/03/13 00:30:00;;;;;;;0.8;0.8;;;;;;;9.3;100.0;100000;;;;
2023/03/13 00:31:01;;;;;;;0.8;0.8;;;;;;;9.3;100.0;100000;;;;
2023/03/13 00:32:00;;;;;;;0.8;0.8;;;;;;;9.3;100.0;99990;;;;
2023/03/13 00:33:00;;;;;;;0.8;0.8;;;;;;;9.3;100.0;99990;;;;
2023/03/13 00:34:01;;;;;;;0.8;0.8;;;;;;;9.3;100.0;99990;;;;
2023/03/13 00:35:00;;;;;;;0.8;0.8;;;;;;;9.3;100.0;99990;;;;
2023/03/13 00:36:01;;;;;;;0.8;0.8;;;;;;;9.3;100.0;99990;;;;
2023/03/13 00:37:00;;;;;;;0.8;0.8;;;;;;;9.3;100.0;99990;;;;
2023/03/13 00:38:00;;;;;;;0.8;0.8;;;;;;;9.3;100.0;99990;;;;
2023/03/13 00:39:00;;;;;;;0.8;0.8;;;;;;;9.3;100.0;99990;;;;
2023/03/13 00:40:00;;;;;;;0.8;0.8;;;;;;;9.3;100.0;99980;;;;
2023/03/13 00:41:01;;;;;;;0.8;0.8;;;;;;;9.3;100.0;99980;;;;
2023/03/13 00:42:02;;;;;;;0.8;0.8;;;;;;;9.3;100.0;99980;;;;
2023/03/13 00:43:00;;;;;;;0.8;0.8;;;;;;;9.3;100.0;99980;;;;
2023/03/13 00:44:00;;;;;;;0.8;0.8;;;;;;;9.2;100.0;99970;;;;
2023/03/13 00:45:00;;;;;;;0.8;0.8;;;;;;;9.2;100.0;99970;;;;
2023/03/13 00:46:00;;;;;;;0.8;0.8;;;;;;;9.2;100.0;99970;;;;
2023/03/13 00:47:00;;;;;;;0.8;0.8;;;;;;;9.2;100.0;99970;;;;
2023/03/13 00:48:00;;;;;;;0.8;0.8;;;;;;;9.3;100.0;99970;;;;
2023/03/13 00:49:00;;;;;;;0.8;0.8;;;;;;;9.3;100.0;99970;;;;
2023/03/13 00:50:00;;;;;;;0.8;0.8;;;;;;;9.3;100.0;99960;;;;
2023/03/13 00:51:01;;;;;;;0.8;0.8;;;;;;;9.3;100.0;99960;;;;
2023/03/13 00:52:00;;;;;;;0.8;0.8;;;;;;;9.2;100.0;99950;;;;
2023/03/13 00:53:00;;;;;;;0.8;0.8;;;;;;;9.2;100.0;99950;;;;
2023/03/13 00:54:00;;;;;;;0.8;0.8;;;;;;;9.3;100.0;99950;;;;
2023/03/13 00:55:00;;;;;;;0.8;0.8;;;;;;;9.3;100.0;99950;;;;
2023/03/13 00:56:02;;;;;;;0.8;0.8;;;;;;;9.3;100.0;99950;;;;
2023/03/13 00:57:00;;;;;;;1.1;1.1;;;;;;;9.3;100.0;99950;;;;
2023/03/13 00:58:00;;;;;;;1.1;1.1;;;;;;;9.3;100.0;99940;;;;
2023/03/13 00:59:00;;;;;;;1.1;1.1;;;;;;;9.3;100.0;99940;;;;
2023/03/13 01:00:00;;;;;;;1.1;1.1;;;;;;;9.3;100.0;99940;;;;
2023/03/13 01:01:05;;;;;;;1.1;1.1;;;;;;;9.3;100.0;99940;;;;
2023/03/13 01:02:00;;;;;;;1.1;1.1;;;;;;;9.3;100.0;99930;;;;
2023/03/13 01:03:00;;;;;;;1.1;1.1;;;;;;;9.3;100.0;99930;;;;
2023/03/13 01:04:03;;;;;;;1.1;1.1;;;;;;;9.2;100.0;99930;;;;
2023/03/13 01:05:00;;;;;;;1.1;1.1;;;;;;;9.2;100.0;99930;;;;
2023/03/13 01:06:01;;;;;;;1.1;1.1;;;;;;;9.2;100.0;99930;;;;
2023/03/13 01:07:00;;;;;;;1.1;1.1;;;;;;;9.2;100.0;99930;;;;
2023/03/13 01:08:00;;;;;;;1.1;1.1;;;;;;;9.3;100.0;99920;;;;
2023/03/13 01:09:01;;;;;;;1.1;1.1;;;;;;;9.3;100.0;99920;;;;
2023/03/13 01:10:00;;;;;;;1.1;1.1;;;;;;;9.2;100.0;99920;;;;
2023/03/13 01:11:01;;;;;;;1.1;1.1;;;;;;;9.2;100.0;99920;;;;
2023/03/13 01:12:00;;;;;;;1.1;1.1;;;;;;;9.2;100.0;99910;;;;
2023/03/13 01:13:00;;;;;;;1.1;1.1;;;;;;;9.2;100.0;99910;;;;
2023/03/13 01:14:02;;;;;;;1.1;1.1;;;;;;;9.3;100.0;99910;;;;
2023/03/13 01:15:00;;;;;;;1.1;1.1;;;;;;;9.3;100.0;99910;;;;
2023/03/13 01:16:02;;;;;;;1.1;1.1;;;;;;;9.3;100.0;99900;;;;
2023/03/13 01:17:00;;;;;;;0.9;0.9;;;;;;;9.3;100.0;99900;;;;
2023/03/13 01:18:00;;;;;;;0.9;0.9;;;;;;;9.3;100.0;99900;;;;
2023/03/13 01:19:01;;;;;;;0.9;0.9;;;;;;;9.3;100.0;99900;;;;
2023/03/13 01:20:00;;;;;;;0.9;0.9;;;;;;;9.4;100.0;99880;;;;
2023/03/13 01:21:00;;;;;;;0.9;0.9;;;;;;;9.4;100.0;99880;;;;
2023/03/13 01:22:00;;;;;;;0.9;0.9;;;;;;;9.3;100.0;99890;;;;
2023/03/13 01:23:00;;;;;;;0.9;0.9;;;;;;;9.3;100.0;99890;;;;
2023/03/13 01:24:00;;;;;;;0.9;0.9;;;;;;;9.3;100.0;99870;;;;
2023/03/13 01:25:00;;;;;;;0.9;0.9;;;;;;;9.3;100.0;99870;;;;
2023/03/13 01:26:00;;;;;;;0.9;0.9;;;;;;;9.3;100.0;99880;;;;
2023/03/13 01:27:00;;;;;;;0.9;0.9;;;;;;;9.3;100.0;99880;;;;
2023/03/13 01:28:00;;;;;;;0.9;0.9;;;;;;;9.3;100.0;99870;;;;
2023/03/13 01:29:00;;;;;;;0.9;0.9;;;;;;;9.3;100.0;99870;;;;
2023/03/13 01:30:00;;;;;;;0.9;0.9;;;;;;;9.3;100.0;99870;;;;
2023/03/13 01:31:00;;;;;;;0.9;0.9;;;;;;;9.3;100.0;99870;;;;
2023/03/13 01:32:00;;;;;;;0.9;0.9;;;;;;;9.4;100.0;99860;;;;
2023/03/13 01:33:01;;;;;;;0.9;0.9;;;;;;;9.4;100.0;99860;;;;
2023/03/13 01:34:01;;;;;;;0.9;0.9;;;;;;;9.4;100.0;99850;;;;
2023/03/13 01:35:00;;;;;;;0.9;0.9;;;;;;;9.4;100.0;99850;;;;
2023/03/13 01:36:01;;;;;;;0.9;0.9;;;;;;;9.4;100.0;99850;;;;
2023/03/13 01:37:00;;;;;;;2.2;2.0;;;;;;;9.4;100.0;99850;;;;
2023/03/13 01:38:00;;;;;;;2.2;2.0;;;;;;;9.5;100.0;99850;;;;
2023/03/13 01:39:00;;;;;;;2.2;2.0;;;;;;;9.5;100.0;99850;;;;
2023/03/13 01:40:00;;;;;;;2.2;2.0;;;;;;;9.4;100.0;99840;;;;
2023/03/13 01:41:00;;;;;;;2.2;2.0;;;;;;;9.4;100.0;99840;;;;
2023/03/13 01:42:01;;;;;;;2.2;2.0;;;;;;;9.4;100.0;99840;;;;
2023/03/13 01:43:14;;;;;;;2.2;2.0;;;;;;;9.4;100.0;99840;;;;
2023/03/13 01:44:00;;;;;;;2.2;2.0;;;;;;;9.5;100.0;99840;;;;
2023/03/13 01:45:00;;;;;;;2.2;2.0;;;;;;;9.5;100.0;99840;;;;
2023/03/13 01:46:01;;;;;;;2.2;2.0;;;;;;;9.5;100.0;99830;;;;
2023/03/13 01:47:00;;;;;;;2.2;2.0;;;;;;;9.5;100.0;99830;;;;
2023/03/13 01:48:00;;;;;;;2.2;2.0;;;;;;;9.6;100.0;99830;;;;
2023/03/13 01:49:10;;;;;;;2.2;2.0;;;;;;;9.6;100.0;99830;;;;
2023/03/13 01:50:00;;;;;;;2.2;2.0;;;;;;;9.5;100.0;99830;;;;
2023/03/13 01:51:01;;;;;;;2.2;2.0;;;;;;;9.5;100.0;99830;;;;
2023/03/13 01:52:07;;;;;;;2.2;2.0;;;;;;;9.6;100.0;99820;;;;
2023/03/13 01:53:00;;;;;;;2.2;2.0;;;;;;;9.6;100.0;99820;;;;
2023/03/13 01:54:00;;;;;;;2.2;2.0;;;;;;;9.6;100.0;99810;;;;
2023/03/13 01:55:04;;;;;;;2.2;2.0;;;;;;;9.6;100.0;99810;;;;
2023/03/13 01:56:01;;;;;;;2.2;2.0;;;;;;;9.6;100.0;99790;;;;
2023/03/13 01:57:03;;;;;;;1.1;1.1;;;;;;;9.6;100.0;99790;;;;
2023/03/13 01:58:00;;;;;;;1.1;1.1;;;;;;;9.6;100.0;99800;;;;
2023/03/13 01:59:01;;;;;;;1.1;1.1;;;;;;;9.6;100.0;99800;;;;
2023/03/13 02:00:06;;;;;;;1.1;1.1;;;;;;;9.6;100.0;99790;;;;
2023/03/13 02:01:00;;;;;;;1.1;1.1;;;;;;;9.6;100.0;99790;;;;
2023/03/13 02:02:01;;;;;;;1.1;1.1;;;;;;;9.6;100.0;99780;;;;
2023/03/13 02:03:04;;;;;;;1.1;1.1;;;;;;;9.6;100.0;99780;;;;
2023/03/13 02:04:00;;;;;;;1.1;1.1;;;;;;;9.7;100.0;99790;;;;
2023/03/13 02:05:02;;;;;;;1.1;1.1;;;;;;;9.7;100.0;99790;;;;
2023/03/13 02:06:01;;;;;;;1.1;1.1;;;;;;;9.7;100.0;99790;;;;
2023/03/13 02:07:03;;;;;;;1.1;1.1;;;;;;;9.7;100.0;99790;;;;
2023/03/13 02:08:01;;;;;;;1.1;1.1;;;;;;;9.8;100.0;99780;;;;
2023/03/13 02:09:04;;;;;;;1.1;1.1;;;;;;;9.8;100.0;99780;;;;
2023/03/13 02:10:00;;;;;;;1.1;1.1;;;;;;;9.8;100.0;99770;;;;
2023/03/13 02:11:06;;;;;;;1.1;1.1;;;;;;;9.8;100.0;99770;;;;
2023/03/13 02:12:03;;;;;;;1.1;1.1;;;;;;;9.7;100.0;99770;;;;
2023/03/13 02:13:01;;;;;;;1.1;1.1;;;;;;;9.7;100.0;99770;;;;
2023/03/13 02:14:01;;;;;;;1.1;1.1;;;;;;;9.8;100.0;99760;;;;
2023/03/13 02:15:03;;;;;;;1.1;1.1;;;;;;;9.8;100.0;99760;;;;
2023/03/13 02:16:00;;;;;;;1.1;1.1;;;;;;;9.8;100.0;99750;;;;
2023/03/13 02:17:00;;;;;;;0.9;0.9;;;;;;;9.8;100.0;99750;;;;
2023/03/13 02:18:00;;;;;;;0.9;0.9;;;;;;;9.9;100.0;99740;;;;
2023/03/13 02:19:02;;;;;;;0.9;0.9;;;;;;;9.9;100.0;99740;;;;
2023/03/13 02:20:00;;;;;;;0.9;0.9;;;;;;;9.8;100.0;99740;;;;
2023/03/13 02:21:07;;;;;;;0.9;0.9;;;;;;;9.8;100.0;99740;;;;
2023/03/13 02:22:10;;;;;;;0.9;0.9;;;;;;;9.9;100.0;99740;;;;
2023/03/13 02:23:10;;;;;;;0.9;0.9;;;;;;;9.9;100.0;99740;;;;
2023/03/13 02:24:01;;;;;;;0.9;0.9;;;;;;;9.9;100.0;99740;;;;
2023/03/13 02:25:08;;;;;;;0.9;0.9;;;;;;;9.9;100.0;99740;;;;
2023/03/13 02:26:00;;;;;;;0.9;0.9;;;;;;;9.9;100.0;99740;;;;
2023/03/13 02:27:00;;;;;;;0.9;0.9;;;;;;;9.9;100.0;99740;;;;
2023/03/13 02:28:03;;;;;;;0.9;0.9;;;;;;;10.0;100.0;99730;;;;
2023/03/13 02:29:00;;;;;;;0.9;0.9;;;;;;;10.0;100.0;99730;;;;
2023/03/13 02:30:00;;;;;;;0.9;0.9;;;;;;;9.9;100.0;99710;;;;
2023/03/13 02:31:00;;;;;;;0.9;0.9;;;;;;;9.9;100.0;99710;;;;
2023/03/13 02:32:00;;;;;;;0.9;0.9;;;;;;;10.1;100.0;99700;;;;
2023/03/13 02:33:01;;;;;;;0.9;0.9;;;;;;;10.1;100.0;99700;;;;
2023/03/13 02:34:01;;;;;;;0.9;0.9;;;;;;;10.1;100.0;99690;;;;
2023/03/13 02:35:05;;;;;;;0.9;0.9;;;;;;;10.1;100.0;99690;;;;
2023/03/13 02:36:01;;;;;;;0.9;0.9;;;;;;;10.0;100.0;99690;;;;
2023/03/13 02:37:02;;;;;;;0.8;0.8;;;;;;;10.0;100.0;99690;;;;
2023/03/13 02:38:02;;;;;;;0.8;0.8;;;;;;;10.0;100.0;99690;;;;
2023/03/13 02:39:02;;;;;;;0.8;0.8;;;;;;;10.0;100.0;99690;;;;
2023/03/13 02:40:03;;;;;;;0.8;0.8;;;;;;;10.1;100.0;99690;;;;
2023/03/13 02:41:01;;;;;;;0.8;0.8;;;;;;;10.1;100.0;99690;;;;
2023/03/13 02:42:01;;;;;;;0.8;0.8;;;;;;;10.1;100.0;99690;;;;
2023/03/13 02:43:01;;;;;;;0.8;0.8;;;;;;;10.1;100.0;99690;;;;
2023/03/13 02:44:00;;;;;;;0.8;0.8;;;;;;;10.2;100.0;99700;;;;
2023/03/13 02:45:00;;;;;;;0.8;0.8;;;;;;;10.2;100.0;99700;;;;
2023/03/13 02:46:10;;;;;;;0.8;0.8;;;;;;;10.2;100.0;99700;;;;
2023/03/13 02:47:00;;;;;;;0.8;0.8;;;;;;;10.2;100.0;99700;;;;
2023/03/13 02:48:00;;;;;;;0.8;0.8;;;;;;;10.1;100.0;99690;;;;
2023/03/13 02:49:10;;;;;;;0.8;0.8;;;;;;;10.1;100.0;99690;;;;
2023/03/13 02:50:00;;;;;;;0.8;0.8;;;;;;;10.2;100.0;99700;;;;
2023/03/13 02:51:02;;;;;;;0.8;0.8;;;;;;;10.2;100.0;99700;;;;
2023/03/13 02:52:08;;;;;;;0.8;0.8;;;;;;;10.2;100.0;99690;;;;
2023/03/13 02:53:03;;;;;;;0.8;0.8;;;;;;;10.2;100.0;99690;;;;
2023/03/13 02:54:05;;;;;;;0.8;0.8;;;;;;;10.2;100.0;99690;;;;
2023/03/13 02:55:03;;;;;;;0.8;0.8;;;;;;;10.2;100.0;99690;;;;
2023/03/13 02:56:00;;;;;;;0.8;0.8;;;;;;;10.2;100.0;99690;;;;
2023/03/13 02:57:02;;;;;;;0.9;0.9;;;;;;;10.2;100.0;99690;;;;
2023/03/13 02:58:00;;;;;;;0.9;0.9;;;;;;;10.2;100.0;99690;;;;
2023/03/13 02:59:00;;;;;;;0.9;0.9;;;;;;;10.2;100.0;99690;;;;
2023/03/13 03:00:00;;;;;;;0.9;0.9;;;;;;;10.2;100.0;99690;;;;
2023/03/13 03:01:07;;;;;;;0.9;0.9;;;;;;;10.2;100.0;99690;;;;
2023/03/13 03:02:00;;;;;;;0.9;0.9;;;;;;;10.2;100.0;99680;;;;
2023/03/13 03:03:00;;;;;;;0.9;0.9;;;;;;;10.2;100.0;99680;;;;
2023/03/13 03:04:00;;;;;;;0.9;0.9;;;;;;;10.3;100.0;99690;;;;
2023/03/13 03:05:00;;;;;;;0.9;0.9;;;;;;;10.3;100.0;99690;;;;
2023/03/13 03:06:00;;;;;;;0.9;0.9;;;;;;;10.3;100.0;99690;;;;
2023/03/13 03:07:00;;;;;;;0.9;0.9;;;;;;;10.3;100.0;99690;;;;
2023/03/13 03:08:00;;;;;;;0.9;0.9;;;;;;;10.3;100.0;99700;;;;
2023/03/13 03:09:00;;;;;;;0.9;0.9;;;;;;;10.3;100.0;99700;;;;
2023/03/13 03:10:00;;;;;;;0.9;0.9;;;;;;;10.4;100.0;99690;;;;
2023/03/13 03:11:00;;;;;;;0.9;0.9;;;;;;;10.4;100.0;99690;;;;
2023/03/13 03:12:00;;;;;;;0.9;0.9;;;;;;;10.3;100.0;99700;;;;
2023/03/13 03:13:00;;;;;;;0.9;0.9;;;;;;;10.3;100.0;99700;;;;
2023/03/13 03:14:00;;;;;;;0.9;0.9;;;;;;;10.4;100.0;99690;;;;
2023/03/13 03:15:00;;;;;;;0.9;0.9;;;;;;;10.4;100.0;99690;;;;
2023/03/13 03:16:05;;;;;;;0.9;0.9;;;;;;;10.4;100.0;99690;;;;
2023/03/13 03:17:00;;;;;;;0.8;0.8;;;;;;;10.4;100.0;99690;;;;
2023/03/13 03:18:00;;;;;;;0.8;0.8;;;;;;;10.4;100.0;99690;;;;
2023/03/13 03:19:00;;;;;;;0.8;0.8;;;;;;;10.4;100.0;99690;;;;
2023/03/13 03:20:00;;;;;;;0.8;0.8;;;;;;;10.4;100.0;99680;;;;
2023/03/13 03:21:00;;;;;;;0.8;0.8;;;;;;;10.4;100.0;99680;;;;
2023/03/13 03:22:00;;;;;;;0.8;0.8;;;;;;;10.4;100.0;99690;;;;
2023/03/13 03:23:00;;;;;;;0.8;0.8;;;;;;;10.4;100.0;99690;;;;
2023/03/13 03:24:00;;;;;;;0.8;0.8;;;;;;;10.5;100.0;99680;;;;
2023/03/13 03:25:00;;;;;;;0.8;0.8;;;;;;;10.5;100.0;99680;;;;
2023/03/13 03:26:00;;;;;;;0.8;0.8;;;;;;;10.6;100.0;99690;;;;
2023/03/13 03:27:00;;;;;;;0.8;0.8;;;;;;;10.6;100.0;99690;;;;
2023/03/13 03:28:00;;;;;;;0.8;0.8;;;;;;;10.6;100.0;99680;;;;
2023/03/13 03:29:00;;;;;;;0.8;0.8;;;;;;;10.6;100.0;99680;;;;
2023/03/13 03:30:00;;;;;;;0.8;0.8;;;;;;;10.5;100.0;99690;;;;
2023/03/13 03:31:05;;;;;;;0.8;0.8;;;;;;;10.5;100.0;99690;;;;
2023/03/13 03:32:00;;;;;;;0.8;0.8;;;;;;;10.6;100.0;99680;;;;
2023/03/13 03:33:01;;;;;;;0.8;0.8;;;;;;;10.6;100.0;99680;;;;
2023/03/13 03:34:00;;;;;;;0.8;0.8;;;;;;;10.6;100.0;99680;;;;
2023/03/13 03:35:00;;;;;;;0.8;0.8;;;;;;;10.6;100.0;99680;;;;
2023/03/13 03:36:01;;;;;;;0.8;0.8;;;;;;;10.6;100.0;99670;;;;
2023/03/13 03:37:00;;;;;;;0.8;0.8;;;;;;;10.6;100.0;99670;;;;
2023/03/13 03:38:00;;;;;;;0.8;0.8;;;;;;;10.6;100.0;99670;;;;
2023/03/13 03:39:00;;;;;;;0.8;0.8;;;;;;;10.6;100.0;99670;;;;
2023/03/13 03:40:00;;;;;;;0.8;0.8;;;;;;;10.6;100.0;99670;;;;
2023/03/13 03:41:00;;;;;;;0.8;0.8;;;;;;;10.6;100.0;99670;;;;
2023/03/13 03:42:00;;;;;;;0.8;0.8;;;;;;;10.6;100.0;99670;;;;
2023/03/13 03:43:00;;;;;;;0.8;0.8;;;;;;;10.6;100.0;99670;;;;
2023/03/13 03:44:00;;;;;;;0.8;0.8;;;;;;;10.6;100.0;99670;;;;
2023/03/13 03:45:00;;;;;;;0.8;0.8;;;;;;;10.6;100.0;99670;;;;
2023/03/13 03:46:00;;;;;;;0.8;0.8;;;;;;;10.7;100.0;99670;;;;
2023/03/13 03:47:00;;;;;;;0.8;0.8;;;;;;;10.7;100.0;99670;;;;
2023/03/13 03:48:00;;;;;;;0.8;0.8;;;;;;;10.7;100.0;99660;;;;
2023/03/13 03:49:00;;;;;;;0.8;0.8;;;;;;;10.7;100.0;99660;;;;
2023/03/13 03:50:02;;;;;;;0.8;0.8;;;;;;;10.8;100.0;99670;;;;
2023/03/13 03:51:00;;;;;;;0.8;0.8;;;;;;;10.8;100.0;99670;;;;
2023/03/13 03:52:00;;;;;;;0.8;0.8;;;;;;;10.8;100.0;99680;;;;
2023/03/13 03:53:00;;;;;;;0.8;0.8;;;;;;;10.8;100.0;99680;;;;
2023/03/13 03:54:00;;;;;;;0.8;0.8;;;;;;;10.7;100.0;99670;;;;
2023/03/13 03:55:00;;;;;;;0.8;0.8;;;;;;;10.7;100.0;99670;;;;
2023/03/13 03:56:00;;;;;;;0.8;0.8;;;;;;;10.8;100.0;99670;;;;
2023/03/13 03:57:00;;;;;;;0.9;0.9;;;;;;;10.8;100.0;99670;;;;
2023/03/13 03:58:00;;;;;;;0.9;0.9;;;;;;;10.7;100.0;99670;;;;
2023/03/13 03:59:00;;;;;;;0.9;0.9;;;;;;;10.7;100.0;99670;;;;
2023/03/13 04:00:00;;;;;;;0.9;0.9;;;;;;;10.8;100.0;99670;;;;
2023/03/13 04:01:00;;;;;;;0.9;0.9;;;;;;;10.8;100.0;99670;;;;
2023/03/13 04:02:00;;;;;;;0.9;0.9;;;;;;;10.9;100.0;99670;;;;
2023/03/13 04:03:00;;;;;;;0.9;0.9;;;;;;;10.9;100.0;99670;;;;
2023/03/13 04:04:00;;;;;;;0.9;0.9;;;;;;;10.9;100.0;99670;;;;
2023/03/13 04:05:00;;;;;;;0.9;0.9;;;;;;;10.9;100.0;99670;;;;
2023/03/13 04:06:00;;;;;;;0.9;0.9;;;;;;;10.9;100.0;99660;;;;
2023/03/13 04:07:00;;;;;;;0.9;0.9;;;;;;;10.9;100.0;99660;;;;
2023/03/13 04:08:00;;;;;;;0.9;0.9;;;;;;;10.9;100.0;99660;;;;
2023/03/13 04:09:00;;;;;;;0.9;0.9;;;;;;;10.9;100.0;99660;;;;
2023/03/13 04:10:00;;;;;;;0.9;0.9;;;;;;;10.8;100.0;99660;;;;
2023/03/13 04:11:00;;;;;;;0.9;0.9;;;;;;;10.8;100.0;99660;;;;
2023/03/13 04:12:00;;;;;;;0.9;0.9;;;;;;;10.9;100.0;99660;;;;
2023/03/13 04:13:00;;;;;;;0.9;0.9;;;;;;;10.9;100.0;99660;;;;
2023/03/13 04:14:00;;;;;;;0.9;0.9;;;;;;;10.9;100.0;99650;;;;
2023/03/13 04:15:00;;;;;;;0.9;0.9;;;;;;;10.9;100.0;99650;;;;
2023/03/13 04:16:05;;;;;;;0.9;0.9;;;;;;;10.9;100.0;99650;;;;
2023/03/13 04:17:00;;;;;;;0.6;0.6;;;;;;;10.9;100.0;99650;;;;
2023/03/13 04:18:00;;;;;;;0.6;0.6;;;;;;;10.9;100.0;99650;;;;
2023/03/13 04:19:00;;;;;;;0.6;0.6;;;;;;;10.9;100.0;99650;;;;
2023/03/13 04:20:00;;;;;;;0.6;0.6;;;;;;;10.9;100.0;99650;;;;
2023/03/13 04:21:01;;;;;;;0.6;0.6;;;;;;;10.9;100.0;99650;;;;
2023/03/13 04:22:00;;;;;;;0.6;0.6;;;;;;;11.0;100.0;99650;;;;
2023/03/13 04:23:00;;;;;;;0.6;0.6;;;;;;;11.0;100.0;99650;;;;
2023/03/13 04:24:00;;;;;;;0.6;0.6;;;;;;;10.9;100.0;99650;;;;
2023/03/13 04:25:00;;;;;;;0.6;0.6;;;;;;;10.9;100.0;99650;;;;
2023/03/13 04:26:00;;;;;;;0.6;0.6;;;;;;;11.0;100.0;99650;;;;
2023/03/13 04:27:02;;;;;;;0.6;0.6;;;;;;;11.0;100.0;99650;;;;
2023/03/13 04:28:00;;;;;;;0.6;0.6;;;;;;;10.9;100.0;99640;;;;
2023/03/13 04:29:00;;;;;;;0.6;0.6;;;;;;;10.9;100.0;99640;;;;
2023/03/13 04:30:00;;;;;;;0.6;0.6;;;;;;;11.0;100.0;99640;;;;
2023/03/13 04:31:00;;;;;;;0.6;0.6;;;;;;;11.0;100.0;99640;;;;
2023/03/13 04:32:00;;;;;;;0.6;0.6;;;;;;;11.1;100.0;99630;;;;
2023/03/13 04:33:00;;;;;;;0.6;0.6;;;;;;;11.1;100.0;99630;;;;
2023/03/13 04:34:00;;;;;;;0.6;0.6;;;;;;;11.1;100.0;99630;;;;
2023/03/13 04:35:00;;;;;;;0.6;0.6;;;;;;;11.1;100.0;99630;;;;
2023/03/13 04:36:00;;;;;;;0.6;0.6;;;;;;;11.1;100.0;99620;;;;
2023/03/13 04:37:00;;;;;;;1.0;1.0;;;;;;;11.1;100.0;99620;;;;
2023/03/13 04:38:01;;;;;;;1.0;1.0;;;;;;;11.1;100.0;99610;;;;
2023/03/13 04:39:00;;;;;;;1.0;1.0;;;;;;;11.1;100.0;99610;;;;
2023/03/13 04:40:00;;;;;;;1.0;1.0;;;;;;;11.1;100.0;99610;;;;
2023/03/13 04:41:00;;;;;;;1.0;1.0;;;;;;;11.1;100.0;99610;;;;
2023/03/13 04:42:00;;;;;;;1.0;1.0;;;;;;;11.1;100.0;99610;;;;
2023/03/13 04:43:00;;;;;;;1.0;1.0;;;;;;;11.1;100.0;99610;;;;
2023/03/13 04:44:00;;;;;;;1.0;1.0;;;;;;;11.2;100.0;99600;;;;
2023/03/13 04:45:00;;;;;;;1.0;1.0;;;;;;;11.2;100.0;99600;;;;
2023/03/13 04:46:00;;;;;;;1.0;1.0;;;;;;;11.2;100.0;99600;;;;
2023/03/13 04:47:00;;;;;;;1.0;1.0;;;;;;;11.2;100.0;99600;;;;
2023/03/13 04:48:00;;;;;;;1.0;1.0;;;;;;;11.2;100.0;99600;;;;
2023/03/13 04:49:00;;;;;;;1.0;1.0;;;;;;;11.2;100.0;99600;;;;
2023/03/13 04:50:00;;;;;;;1.0;1.0;;;;;;;11.2;100.0;99600;;;;
2023/03/13 04:51:00;;;;;;;1.0;1.0;;;;;;;11.2;100.0;99600;;;;
2023/03/13 04:52:00;;;;;;;1.0;1.0;;;;;;;11.3;100.0;99590;;;;
2023/03/13 04:53:00;;;;;;;1.0;1.0;;;;;;;11.3;100.0;99590;;;;
2023/03/13 04:54:00;;;;;;;1.0;1.0;;;;;;;11.3;100.0;99590;;;;
2023/03/13 04:55:00;;;;;;;1.0;1.0;;;;;;;11.3;100.0;99590;;;;
2023/03/13 04:56:00;;;;;;;1.0;1.0;;;;;;;11.3;100.0;99580;;;;
2023/03/13 04:57:00;;;;;;;0.7;0.7;;;;;;;11.3;100.0;99580;;;;
2023/03/13 04:58:00;;;;;;;0.7;0.7;;;;;;;11.3;100.0;99580;;;;
2023/03/13 04:59:00;;;;;;;0.7;0.7;;;;;;;11.3;100.0;99580;;;;
2023/03/13 05:00:00;;;;;;;0.7;0.7;;;;;;;11.4;100.0;99580;;;;
2023/03/13 05:01:00;;;;;;;0.7;0.7;;;;;;;11.4;100.0;99580;;;;
2023/03/13 05:02:00;;;;;;;0.7;0.7;;;;;;;11.4;100.0;99580;;;;
2023/03/13 05:03:00;;;;;;;0.7;0.7;;;;;;;11.4;100.0;99580;;;;
2023/03/13 05:04:00;;;;;;;0.7;0.7;;;;;;;11.4;100.0;99580;;;;
2023/03/13 05:05:00;;;;;;;0.7;0.7;;;;;;;11.4;100.0;99580;;;;
2023/03/13 05:06:00;;;;;;;0.7;0.7;;;;;;;11.4;100.0;99590;;;;
2023/03/13 05:07:00;;;;;;;0.7;0.7;;;;;;;11.4;100.0;99590;;;;
2023/03/13 05:08:00;;;;;;;0.7;0.7;;;;;;;11.4;100.0;99580;;;;
2023/03/13 05:09:01;;;;;;;0.7;0.7;;;;;;;11.4;100.0;99580;;;;
2023/03/13 05:10:00;;;;;;;0.7;0.7;;;;;;;11.4;100.0;99580;;;;
2023/03/13 05:11:00;;;;;;;0.7;0.7;;;;;;;11.4;100.0;99580;;;;
2023/03/13 05:12:00;;;;;;;0.7;0.7;;;;;;;11.4;100.0;99570;;;;
2023/03/13 05:13:00;;;;;;;0.7;0.7;;;;;;;11.4;100.0;99570;;;;
2023/03/13 05:14:00;;;;;;;0.7;0.7;;;;;;;11.3;100.0;99570;;;;
2023/03/13 05:15:00;;;;;;;0.7;0.7;;;;;;;11.3;100.0;99570;;;;
2023/03/13 05:16:00;;;;;;;0.7;0.7;;;;;;;11.4;100.0;99570;;;;
2023/03/13 05:17:00;;;;;;;0.8;0.8;;;;;;;11.4;100.0;99570;;;;
2023/03/13 05:18:00;;;;;;;0.8;0.8;;;;;;;11.5;100.0;99560;;;;
2023/03/13 05:19:00;;;;;;;0.8;0.8;;;;;;;11.5;100.0;99560;;;;
2023/03/13 05:20:00;;;;;;;0.8;0.8;;;;;;;11.4;100.0;99560;;;;
2023/03/13 05:21:00;;;;;;;0.8;0.8;;;;;;;11.4;100.0;99560;;;;
2023/03/13 05:22:00;;;;;;;0.8;0.8;;;;;;;11.4;100.0;99570;;;;
2023/03/13 05:23:00;;;;;;;0.8;0.8;;;;;;;11.4;100.0;99570;;;;
2023/03/13 05:24:00;;;;;;;0.8;0.8;;;;;;;11.4;100.0;99550;;;;
2023/03/13 05:25:00;;;;;;;0.8;0.8;;;;;;;11.4;100.0;99550;;;;
2023/03/13 05:26:00;;;;;;;0.8;0.8;;;;;;;11.5;100.0;99560;;;;
2023/03/13 05:27:01;;;;;;;0.8;0.8;;;;;;;11.5;100.0;99560;;;;
2023/03/13 05:28:00;;;;;;;0.8;0.8;;;;;;;11.5;100.0;99560;;;;
2023/03/13 05:29:00;;;;;;;0.8;0.8;;;;;;;11.5;100.0;99560;;;;
2023/03/13 05:30:00;;;;;;;0.8;0.8;;;;;;;11.5;100.0;99560;;;;
2023/03/13 05:31:00;;;;;;;0.8;0.8;;;;;;;11.5;100.0;99560;;;;
2023/03/13 05:32:00;;;;;;;0.8;0.8;;;;;;;11.6;100.0;99560;;;;
2023/03/13 05:33:00;;;;;;;0.8;0.8;;;;;;;11.6;100.0;99560;;;;
2023/03/13 05:34:00;;;;;;;0.8;0.8;;;;;;;11.5;100.0;99550;;;;
2023/03/13 05:35:00;;;;;;;0.8;0.8;;;;;;;11.5;100.0;99550;;;;
2023/03/13 05:36:00;;;;;;;0.6;0.6;;;;;;;11.4;100.0;99550;;;;
2023/03/13 05:37:00;;;;;;;0.6;0.6;;;;;;;11.4;100.0;99550;;;;
2023/03/13 05:38:00;;;;;;;0.6;0.6;;;;;;;11.5;100.0;99550;;;;
2023/03/13 05:39:00;;;;;;;0.6;0.6;;;;;;;11.5;100.0;99550;;;;
2023/03/13 05:40:00;;;;;;;0.6;0.6;;;;;;;11.5;100.0;99550;;;;
2023/03/13 05:41:00;;;;;;;0.6;0.6;;;;;;;11.5;100.0;99550;;;;
2023/03/13 05:42:00;;;;;;;0.6;0.6;;;;;;;11.6;100.0;99550;;;;
2023/03/13 05:43:00;;;;;;;0.6;0.6;;;;;;;11.6;100.0;99550;;;;
2023/03/13 05:44:00;;;;;;;0.6;0.6;;;;;;;11.5;100.0;99560;;;;
2023/03/13 05:45:00;;;;;;;0.6;0.6;;;;;;;11.5;100.0;99560;;;;
2023/03/13 05:46:00;;;;;;;0.6;0.6;;;;;;;11.6;100.0;99560;;;;
2023/03/13 05:47:01;;;;;;;0.6;0.6;;;;;;;11.6;100.0;99560;;;;
2023/03/13 05:48:00;;;;;;;0.6;0.6;;;;;;;11.5;100.0;99560;;;;
2023/03/13 05:49:00;;;;;;;0.6;0.6;;;;;;;11.5;100.0;99560;;;;
2023/03/13 05:50:00;;;;;;;0.6;0.6;;;;;;;11.5;100.0;99560;;;;
2023/03/13 05:51:00;;;;;;;0.6;0.6;;;;;;;11.5;100.0;99560;;;;
2023/03/13 05:52:00;;;;;;;0.6;0.6;;;;;;;11.6;100.0;99560;;;;
2023/03/13 05:53:00;;;;;;;0.6;0.6;;;;;;;11.6;100.0;99560;;;;
2023/03/13 05:54:00;;;;;;;0.6;0.6;;;;;;;11.4;100.0;99560;;;;
2023/03/13 05:55:00;;;;;;;0.6;0.6;;;;;;;11.4;100.0;99560;;;;
2023/03/13 05:56:00;;;;;;;0.6;0.6;;;;;;;11.5;100.0;99550;;;;
2023/03/13 05:57:00;;;;;;;0.6;0.6;;;;;;;11.5;100.0;99550;;;;
2023/03/13 05:58:00;;;;;;;0.6;0.6;;;;;;;11.6;100.0;99560;;;;
2023/03/13 05:59:00;;;;;;;0.6;0.6;;;;;;;11.6;100.0;99560;;;;
2023/03/13 06:00:00;;;;;;;0.6;0.6;;;;;;;11.6;100.0;99550;;;;
2023/03/13 06:01:05;;;;;;;0.6;0.6;;;;;;;11.6;100.0;99550;;;;
2023/03/13 06:02:00;;;;;;;0.6;0.6;;;;;;;11.6;100.0;99550;;;;
2023/03/13 06:03:00;;;;;;;0.6;0.6;;;;;;;11.6;100.0;99550;;;;
2023/03/13 06:04:00;;;;;;;0.6;0.6;;;;;;;11.5;100.0;99540;;;;
2023/03/13 06:05:00;;;;;;;0.6;0.6;;;;;;;11.5;100.0;99540;;;;
2023/03/13 06:06:00;;;;;;;0.6;0.6;;;;;;;11.6;100.0;99570;;;;
2023/03/13 06:07:00;;;;;;;0.6;0.6;;;;;;;11.6;100.0;99570;;;;
2023/03/13 06:08:01;;;;;;;0.6;0.6;;;;;;;11.6;100.0;99550;;;;
2023/03/13 06:09:00;;;;;;;0.6;0.6;;;;;;;11.6;100.0;99550;;;;
2023/03/13 06:10:00;;;;;;;0.6;0.6;;;;;;;11.6;100.0;99550;;;;
2023/03/13 06:11:01;;;;;;;0.6;0.6;;;;;;;11.6;100.0;99550;;;;
2023/03/13 06:12:00;;;;;;;0.6;0.6;;;;;;;11.6;100.0;99550;;;;
2023/03/13 06:13:10;;;;;;;0.6;0.6;;;;;;;11.6;100.0;99550;;;;
2023/03/13 06:14:00;;;;;;;0.6;0.6;;;;;;;11.5;100.0;99550;;;;
2023/03/13 06:15:00;;;;;;;0.6;0.6;;;;;;;11.5;100.0;99550;;;;
2023/03/13 06:16:00;;;;;;;0.7;0.7;;;;;;;11.5;100.0;99550;;;;
2023/03/13 06:17:00;;;;;;;0.7;0.7;;;;;;;11.5;100.0;99550;;;;
2023/03/13 06:18:00;;;;;;;0.7;0.7;;;;;;;11.6;100.0;99540;;;;
2023/03/13 06:19:01;;;;;;;0.7;0.7;;;;;;;11.6;100.0;99540;;;;
2023/03/13 06:20:00;;;;;;;0.7;0.7;;;;;;;11.6;100.0;99550;;;;
2023/03/13 06:21:01;;;;;;;0.7;0.7;;;;;;;11.6;100.0;99550;;;;
2023/03/13 06:22:00;;;;;;;0.7;0.7;;;;;;;11.5;100.0;99540;;;;
2023/03/13 06:23:00;;;;;;;0.7;0.7;;;;;;;11.5;100.0;99540;;;;
2023/03/13 06:24:00;;;;;;;0.7;0.7;;;;;;;11.5;100.0;99540;;;;
2023/03/13 06:25:00;;;;;;;0.7;0.7;;;;;;;11.5;100.0;99540;;;;
2023/03/13 06:26:00;;;;;;;0.7;0.7;;;;;;;11.5;100.0;99540;;;;
2023/03/13 06:27:00;;;;;;;0.7;0.7;;;;;;;11.5;100.0;99540;;;;
2023/03/13 06:28:00;;;;;;;0.7;0.7;;;;;;;11.6;100.0;99540;;;;
2023/03/13 06:29:00;;;;;;;0.7;0.7;;;;;;;11.6;100.0;99540;;;;
2023/03/13 06:30:00;;;;;;;0.7;0.7;;;;;;;11.6;100.0;99540;;;;